sensor_id;sensor_type;location;lat;lon;timestamp;P1;durP1;ratioP1;P2;durP2;ratioP2
73593;SDS011;64760;53.404;23.498;2023-07-30T00:00:20;6.32;;;4.00;;
73593;SDS011;64760;53.404;23.498;2023-07-30T00:03:05;6.78;;;3.60;;
73593;SDS011;64760;53.404;23.498;2023-07-30T00:05:32;5.03;;;3.17;;
73593;SDS011;64760;53.404;23.498;2023-07-30T00:07:58;5.97;;;3.63;;
73593;SDS011;64760;53.404;23.498;2023-07-30T00:10:24;6.95;;;3.67;;
73593;SDS011;64760;53.404;23.498;2023-07-30T00:12:50;6.00;;;3.88;;
73593;SDS011;64760;53.404;23.498;2023-07-30T00:15:16;5.88;;;3.45;;
73593;SDS011;64760;53.404;23.498;2023-07-30T00:17:42;6.80;;;4.00;;
73593;SDS011;64760;53.404;23.498;2023-07-30T00:20:08;5.43;;;3.58;;
73593;SDS011;64760;53.404;23.498;2023-07-30T00:22:34;6.20;;;3.97;;
73593;SDS011;64760;53.404;23.498;2023-07-30T00:25:00;6.38;;;3.90;;
73593;SDS011;64760;53.404;23.498;2023-07-30T00:27:26;6.35;;;3.95;;
73593;SDS011;64760;53.404;23.498;2023-07-30T00:29:53;4.78;;;3.53;;
73593;SDS011;64760;53.404;23.498;2023-07-30T00:32:18;6.05;;;3.83;;
73593;SDS011;64760;53.404;23.498;2023-07-30T00:34:45;6.15;;;4.13;;
73593;SDS011;64760;53.404;23.498;2023-07-30T00:37:11;4.97;;;3.45;;
73593;SDS011;64760;53.404;23.498;2023-07-30T00:39:37;5.28;;;2.55;;
73593;SDS011;64760;53.404;23.498;2023-07-30T00:42:03;4.68;;;3.40;;
73593;SDS011;64760;53.404;23.498;2023-07-30T00:44:29;5.88;;;3.88;;
73593;SDS011;64760;53.404;23.498;2023-07-30T00:46:56;6.00;;;4.10;;
73593;SDS011;64760;53.404;23.498;2023-07-30T00:49:22;5.20;;;3.72;;
73593;SDS011;64760;53.404;23.498;2023-07-30T00:51:48;8.77;;;3.88;;
73593;SDS011;64760;53.404;23.498;2023-07-30T00:54:14;7.93;;;3.70;;
73593;SDS011;64760;53.404;23.498;2023-07-30T00:56:41;6.68;;;3.78;;
73593;SDS011;64760;53.404;23.498;2023-07-30T00:59:10;7.18;;;4.18;;
73593;SDS011;64760;53.404;23.498;2023-07-30T01:01:36;6.50;;;4.35;;
73593;SDS011;64760;53.404;23.498;2023-07-30T01:04:03;6.78;;;4.22;;
73593;SDS011;64760;53.404;23.498;2023-07-30T01:06:29;6.93;;;4.07;;
73593;SDS011;64760;53.404;23.498;2023-07-30T01:08:55;6.70;;;4.15;;
73593;SDS011;64760;53.404;23.498;2023-07-30T01:11:21;6.30;;;4.32;;
73593;SDS011;64760;53.404;23.498;2023-07-30T01:13:48;8.00;;;4.68;;
73593;SDS011;64760;53.404;23.498;2023-07-30T01:16:14;7.10;;;4.18;;
73593;SDS011;64760;53.404;23.498;2023-07-30T01:18:40;9.02;;;5.13;;
73593;SDS011;64760;53.404;23.498;2023-07-30T01:21:06;7.72;;;4.97;;
73593;SDS011;64760;53.404;23.498;2023-07-30T01:23:32;7.78;;;4.50;;
73593;SDS011;64760;53.404;23.498;2023-07-30T01:26:03;8.18;;;5.15;;
73593;SDS011;64760;53.404;23.498;2023-07-30T01:28:31;8.77;;;5.38;;
73593;SDS011;64760;53.404;23.498;2023-07-30T01:30:59;8.10;;;5.13;;
73593;SDS011;64760;53.404;23.498;2023-07-30T01:33:27;8.13;;;5.05;;
73593;SDS011;64760;53.404;23.498;2023-07-30T01:35:54;7.40;;;5.00;;
73593;SDS011;64760;53.404;23.498;2023-07-30T01:38:21;7.80;;;5.05;;
73593;SDS011;64760;53.404;23.498;2023-07-30T01:40:47;9.35;;;5.45;;
73593;SDS011;64760;53.404;23.498;2023-07-30T01:43:14;11.50;;;5.50;;
73593;SDS011;64760;53.404;23.498;2023-07-30T01:45:39;10.05;;;6.05;;
73593;SDS011;64760;53.404;23.498;2023-07-30T01:48:07;10.05;;;5.57;;
73593;SDS011;64760;53.404;23.498;2023-07-30T01:50:33;9.13;;;6.15;;
73593;SDS011;64760;53.404;23.498;2023-07-30T01:52:59;9.00;;;5.18;;
73593;SDS011;64760;53.404;23.498;2023-07-30T01:55:25;8.88;;;5.78;;
73593;SDS011;64760;53.404;23.498;2023-07-30T01:57:51;7.75;;;5.55;;
73593;SDS011;64760;53.404;23.498;2023-07-30T02:00:17;8.27;;;5.47;;
73593;SDS011;64760;53.404;23.498;2023-07-30T02:02:43;8.43;;;5.40;;
73593;SDS011;64760;53.404;23.498;2023-07-30T02:05:09;8.77;;;5.78;;
73593;SDS011;64760;53.404;23.498;2023-07-30T02:07:36;9.93;;;6.20;;
73593;SDS011;64760;53.404;23.498;2023-07-30T02:10:01;8.32;;;6.47;;
73593;SDS011;64760;53.404;23.498;2023-07-30T02:12:28;9.07;;;5.60;;
73593;SDS011;64760;53.404;23.498;2023-07-30T02:14:54;8.77;;;6.10;;
73593;SDS011;64760;53.404;23.498;2023-07-30T02:17:20;8.30;;;5.82;;
73593;SDS011;64760;53.404;23.498;2023-07-30T02:19:46;12.02;;;5.88;;
73593;SDS011;64760;53.404;23.498;2023-07-30T02:22:12;8.48;;;5.60;;
73593;SDS011;64760;53.404;23.498;2023-07-30T02:24:38;10.30;;;6.53;;
73593;SDS011;64760;53.404;23.498;2023-07-30T02:27:05;9.40;;;5.88;;
73593;SDS011;64760;53.404;23.498;2023-07-30T02:29:31;9.65;;;6.65;;
73593;SDS011;64760;53.404;23.498;2023-07-30T02:31:57;8.48;;;5.75;;
73593;SDS011;64760;53.404;23.498;2023-07-30T02:34:25;9.45;;;6.07;;
73593;SDS011;64760;53.404;23.498;2023-07-30T02:36:51;10.40;;;5.93;;
73593;SDS011;64760;53.404;23.498;2023-07-30T02:39:17;11.18;;;6.88;;
73593;SDS011;64760;53.404;23.498;2023-07-30T02:41:44;16.85;;;6.35;;
73593;SDS011;64760;53.404;23.498;2023-07-30T02:44:09;7.93;;;5.75;;
73593;SDS011;64760;53.404;23.498;2023-07-30T02:46:36;10.63;;;6.28;;
73593;SDS011;64760;53.404;23.498;2023-07-30T02:49:01;11.50;;;7.38;;
73593;SDS011;64760;53.404;23.498;2023-07-30T02:51:28;10.02;;;6.72;;
73593;SDS011;64760;53.404;23.498;2023-07-30T02:53:57;10.20;;;6.53;;
73593;SDS011;64760;53.404;23.498;2023-07-30T02:56:25;10.55;;;7.25;;
73593;SDS011;64760;53.404;23.498;2023-07-30T02:58:50;11.80;;;7.07;;
73593;SDS011;64760;53.404;23.498;2023-07-30T03:01:17;8.88;;;6.18;;
73593;SDS011;64760;53.404;23.498;2023-07-30T03:03:44;8.93;;;6.13;;
73593;SDS011;64760;53.404;23.498;2023-07-30T03:06:10;9.57;;;5.78;;
73593;SDS011;64760;53.404;23.498;2023-07-30T03:08:36;10.52;;;6.60;;
73593;SDS011;64760;53.404;23.498;2023-07-30T03:11:03;11.05;;;6.18;;
73593;SDS011;64760;53.404;23.498;2023-07-30T03:13:29;9.25;;;6.32;;
73593;SDS011;64760;53.404;23.498;2023-07-30T03:15:55;10.13;;;6.28;;
73593;SDS011;64760;53.404;23.498;2023-07-30T03:18:21;12.02;;;6.50;;
73593;SDS011;64760;53.404;23.498;2023-07-30T03:20:47;9.05;;;6.18;;
73593;SDS011;64760;53.404;23.498;2023-07-30T03:23:13;11.20;;;7.32;;
73593;SDS011;64760;53.404;23.498;2023-07-30T03:25:39;12.77;;;7.22;;
73593;SDS011;64760;53.404;23.498;2023-07-30T03:28:05;12.52;;;7.07;;
73593;SDS011;64760;53.404;23.498;2023-07-30T03:30:31;10.95;;;6.47;;
73593;SDS011;64760;53.404;23.498;2023-07-30T03:32:57;11.68;;;6.45;;
73593;SDS011;64760;53.404;23.498;2023-07-30T03:35:23;9.50;;;6.60;;
73593;SDS011;64760;53.404;23.498;2023-07-30T03:37:49;11.15;;;7.07;;
73593;SDS011;64760;53.404;23.498;2023-07-30T03:40:15;10.75;;;6.85;;
73593;SDS011;64760;53.404;23.498;2023-07-30T03:42:41;9.82;;;6.28;;
73593;SDS011;64760;53.404;23.498;2023-07-30T03:45:08;11.00;;;7.13;;
73593;SDS011;64760;53.404;23.498;2023-07-30T03:47:34;10.70;;;6.80;;
73593;SDS011;64760;53.404;23.498;2023-07-30T03:50:00;11.65;;;7.03;;
73593;SDS011;64760;53.404;23.498;2023-07-30T03:52:26;11.43;;;7.13;;
73593;SDS011;64760;53.404;23.498;2023-07-30T03:54:52;11.50;;;7.15;;
73593;SDS011;64760;53.404;23.498;2023-07-30T03:57:18;12.27;;;8.18;;
73593;SDS011;64760;53.404;23.498;2023-07-30T03:59:44;12.68;;;6.40;;
73593;SDS011;64760;53.404;23.498;2023-07-30T04:02:11;9.45;;;6.63;;
73593;SDS011;64760;53.404;23.498;2023-07-30T04:04:41;11.00;;;6.95;;
73593;SDS011;64760;53.404;23.498;2023-07-30T04:07:10;11.13;;;6.88;;
73593;SDS011;64760;53.404;23.498;2023-07-30T04:09:36;11.52;;;7.00;;
73593;SDS011;64760;53.404;23.498;2023-07-30T04:12:02;10.40;;;6.15;;
73593;SDS011;64760;53.404;23.498;2023-07-30T04:14:28;11.10;;;7.15;;
73593;SDS011;64760;53.404;23.498;2023-07-30T04:16:54;9.93;;;6.53;;
73593;SDS011;64760;53.404;23.498;2023-07-30T04:19:20;10.80;;;7.28;;
73593;SDS011;64760;53.404;23.498;2023-07-30T04:21:46;9.52;;;6.78;;
73593;SDS011;64760;53.404;23.498;2023-07-30T04:24:13;9.63;;;6.50;;
73593;SDS011;64760;53.404;23.498;2023-07-30T04:26:39;9.30;;;6.00;;
73593;SDS011;64760;53.404;23.498;2023-07-30T04:29:05;9.07;;;6.45;;
73593;SDS011;64760;53.404;23.498;2023-07-30T04:31:31;9.15;;;6.03;;
73593;SDS011;64760;53.404;23.498;2023-07-30T04:33:59;9.40;;;6.03;;
73593;SDS011;64760;53.404;23.498;2023-07-30T04:36:25;8.88;;;5.50;;
73593;SDS011;64760;53.404;23.498;2023-07-30T04:38:52;8.40;;;5.82;;
73593;SDS011;64760;53.404;23.498;2023-07-30T04:41:20;7.95;;;5.68;;
73593;SDS011;64760;53.404;23.498;2023-07-30T04:43:51;8.13;;;5.55;;
73593;SDS011;64760;53.404;23.498;2023-07-30T04:46:17;7.47;;;5.70;;
73593;SDS011;64760;53.404;23.498;2023-07-30T04:48:43;8.88;;;5.88;;
73593;SDS011;64760;53.404;23.498;2023-07-30T04:51:11;9.60;;;7.15;;
73593;SDS011;64760;53.404;23.498;2023-07-30T04:53:38;13.40;;;8.55;;
73593;SDS011;64760;53.404;23.498;2023-07-30T04:56:03;9.65;;;5.88;;
73593;SDS011;64760;53.404;23.498;2023-07-30T04:58:30;11.40;;;7.07;;
73593;SDS011;64760;53.404;23.498;2023-07-30T05:00:56;9.45;;;6.90;;
73593;SDS011;64760;53.404;23.498;2023-07-30T05:03:22;10.77;;;6.53;;
73593;SDS011;64760;53.404;23.498;2023-07-30T05:05:48;7.72;;;5.75;;
73593;SDS011;64760;53.404;23.498;2023-07-30T05:08:14;8.30;;;6.13;;
73593;SDS011;64760;53.404;23.498;2023-07-30T05:10:40;9.15;;;7.20;;
73593;SDS011;64760;53.404;23.498;2023-07-30T05:13:06;8.13;;;6.22;;
73593;SDS011;64760;53.404;23.498;2023-07-30T05:15:34;9.23;;;6.15;;
73593;SDS011;64760;53.404;23.498;2023-07-30T05:18:00;10.90;;;7.30;;
73593;SDS011;64760;53.404;23.498;2023-07-30T05:20:27;10.60;;;6.45;;
73593;SDS011;64760;53.404;23.498;2023-07-30T05:22:53;9.75;;;6.60;;
73593;SDS011;64760;53.404;23.498;2023-07-30T05:25:19;10.57;;;6.90;;
73593;SDS011;64760;53.404;23.498;2023-07-30T05:27:45;10.00;;;6.75;;
73593;SDS011;64760;53.404;23.498;2023-07-30T05:30:12;10.93;;;7.15;;
73593;SDS011;64760;53.404;23.498;2023-07-30T05:35:05;11.65;;;7.85;;
73593;SDS011;64760;53.404;23.498;2023-07-30T05:37:31;10.77;;;7.00;;
73593;SDS011;64760;53.404;23.498;2023-07-30T05:39:57;11.65;;;7.43;;
73593;SDS011;64760;53.404;23.498;2023-07-30T05:42:23;10.63;;;7.30;;
73593;SDS011;64760;53.404;23.498;2023-07-30T05:44:49;9.73;;;6.93;;
73593;SDS011;64760;53.404;23.498;2023-07-30T05:47:15;10.50;;;7.00;;
73593;SDS011;64760;53.404;23.498;2023-07-30T05:49:41;9.90;;;7.15;;
73593;SDS011;64760;53.404;23.498;2023-07-30T05:52:07;9.50;;;6.47;;
73593;SDS011;64760;53.404;23.498;2023-07-30T05:54:33;10.50;;;6.97;;
73593;SDS011;64760;53.404;23.498;2023-07-30T05:56:59;9.20;;;6.93;;
73593;SDS011;64760;53.404;23.498;2023-07-30T05:59:25;10.63;;;7.00;;
73593;SDS011;64760;53.404;23.498;2023-07-30T06:01:51;10.40;;;7.10;;
73593;SDS011;64760;53.404;23.498;2023-07-30T06:04:17;9.40;;;6.32;;
73593;SDS011;64760;53.404;23.498;2023-07-30T06:06:44;8.85;;;6.70;;
73593;SDS011;64760;53.404;23.498;2023-07-30T06:09:10;9.20;;;6.20;;
73593;SDS011;64760;53.404;23.498;2023-07-30T06:11:37;9.07;;;6.30;;
73593;SDS011;64760;53.404;23.498;2023-07-30T06:14:03;10.18;;;7.03;;
73593;SDS011;64760;53.404;23.498;2023-07-30T06:16:29;11.45;;;6.88;;
73593;SDS011;64760;53.404;23.498;2023-07-30T06:18:55;9.32;;;6.40;;
73593;SDS011;64760;53.404;23.498;2023-07-30T06:21:21;10.38;;;7.20;;
73593;SDS011;64760;53.404;23.498;2023-07-30T06:23:47;10.73;;;7.30;;
73593;SDS011;64760;53.404;23.498;2023-07-30T06:26:13;9.52;;;6.85;;
73593;SDS011;64760;53.404;23.498;2023-07-30T06:28:39;10.30;;;6.50;;
73593;SDS011;64760;53.404;23.498;2023-07-30T06:31:05;8.25;;;5.88;;
73593;SDS011;64760;53.404;23.498;2023-07-30T06:33:31;8.93;;;5.72;;
73593;SDS011;64760;53.404;23.498;2023-07-30T06:35:58;8.32;;;6.10;;
73593;SDS011;64760;53.404;23.498;2023-07-30T06:38:24;9.73;;;6.15;;
73593;SDS011;64760;53.404;23.498;2023-07-30T06:40:50;10.07;;;6.25;;
73593;SDS011;64760;53.404;23.498;2023-07-30T06:43:16;8.65;;;6.13;;
73593;SDS011;64760;53.404;23.498;2023-07-30T06:45:42;8.32;;;6.18;;
73593;SDS011;64760;53.404;23.498;2023-07-30T06:48:08;9.63;;;5.97;;
73593;SDS011;64760;53.404;23.498;2023-07-30T06:50:35;8.48;;;6.28;;
73593;SDS011;64760;53.404;23.498;2023-07-30T06:53:00;9.45;;;5.82;;
73593;SDS011;64760;53.404;23.498;2023-07-30T06:55:27;8.25;;;6.35;;
73593;SDS011;64760;53.404;23.498;2023-07-30T06:57:53;12.48;;;6.50;;
73593;SDS011;64760;53.404;23.498;2023-07-30T07:00:19;10.40;;;6.00;;
73593;SDS011;64760;53.404;23.498;2023-07-30T07:02:47;10.43;;;6.45;;
73593;SDS011;64760;53.404;23.498;2023-07-30T07:05:14;8.82;;;6.20;;
73593;SDS011;64760;53.404;23.498;2023-07-30T07:07:40;8.93;;;6.35;;
73593;SDS011;64760;53.404;23.498;2023-07-30T07:10:07;8.43;;;6.60;;
73593;SDS011;64760;53.404;23.498;2023-07-30T07:12:33;10.10;;;5.75;;
73593;SDS011;64760;53.404;23.498;2023-07-30T07:14:59;6.97;;;4.82;;
73593;SDS011;64760;53.404;23.498;2023-07-30T07:17:27;10.20;;;6.25;;
73593;SDS011;64760;53.404;23.498;2023-07-30T07:19:53;7.43;;;5.28;;
73593;SDS011;64760;53.404;23.498;2023-07-30T07:22:19;7.88;;;5.00;;
73593;SDS011;64760;53.404;23.498;2023-07-30T07:24:46;7.00;;;5.05;;
73593;SDS011;64760;53.404;23.498;2023-07-30T07:27:12;8.85;;;5.35;;
73593;SDS011;64760;53.404;23.498;2023-07-30T07:29:38;8.27;;;5.20;;
73593;SDS011;64760;53.404;23.498;2023-07-30T07:32:04;7.18;;;5.07;;
73593;SDS011;64760;53.404;23.498;2023-07-30T07:34:30;6.88;;;4.97;;
73593;SDS011;64760;53.404;23.498;2023-07-30T07:36:56;7.60;;;5.20;;
73593;SDS011;64760;53.404;23.498;2023-07-30T07:39:22;6.18;;;4.80;;
73593;SDS011;64760;53.404;23.498;2023-07-30T07:41:48;8.63;;;3.85;;
73593;SDS011;64760;53.404;23.498;2023-07-30T07:44:14;7.25;;;4.10;;
73593;SDS011;64760;53.404;23.498;2023-07-30T07:46:40;6.38;;;4.75;;
73593;SDS011;64760;53.404;23.498;2023-07-30T07:49:06;7.35;;;5.38;;
73593;SDS011;64760;53.404;23.498;2023-07-30T07:51:34;6.35;;;4.13;;
73593;SDS011;64760;53.404;23.498;2023-07-30T07:54:00;5.88;;;3.58;;
73593;SDS011;64760;53.404;23.498;2023-07-30T07:56:26;6.47;;;4.38;;
73593;SDS011;64760;53.404;23.498;2023-07-30T07:58:52;5.20;;;3.75;;
73593;SDS011;64760;53.404;23.498;2023-07-30T08:01:18;5.22;;;3.53;;
73593;SDS011;64760;53.404;23.498;2023-07-30T08:03:44;5.40;;;3.50;;
73593;SDS011;64760;53.404;23.498;2023-07-30T08:06:10;5.07;;;3.45;;
73593;SDS011;64760;53.404;23.498;2023-07-30T08:08:37;5.65;;;3.47;;
73593;SDS011;64760;53.404;23.498;2023-07-30T08:11:06;4.70;;;2.80;;
73593;SDS011;64760;53.404;23.498;2023-07-30T08:13:33;5.35;;;3.67;;
73593;SDS011;64760;53.404;23.498;2023-07-30T08:15:59;6.25;;;3.90;;
73593;SDS011;64760;53.404;23.498;2023-07-30T08:18:26;7.32;;;5.50;;
73593;SDS011;64760;53.404;23.498;2023-07-30T08:20:52;5.75;;;4.28;;
73593;SDS011;64760;53.404;23.498;2023-07-30T08:23:18;7.05;;;4.68;;
73593;SDS011;64760;53.404;23.498;2023-07-30T08:25:44;5.47;;;3.72;;
73593;SDS011;64760;53.404;23.498;2023-07-30T08:28:10;6.22;;;4.03;;
73593;SDS011;64760;53.404;23.498;2023-07-30T08:30:36;4.65;;;3.10;;
73593;SDS011;64760;53.404;23.498;2023-07-30T08:33:02;4.32;;;2.70;;
73593;SDS011;64760;53.404;23.498;2023-07-30T08:35:28;4.10;;;2.65;;
73593;SDS011;64760;53.404;23.498;2023-07-30T08:37:54;4.03;;;2.85;;
73593;SDS011;64760;53.404;23.498;2023-07-30T08:40:21;5.43;;;3.17;;
73593;SDS011;64760;53.404;23.498;2023-07-30T08:42:52;4.97;;;3.65;;
73593;SDS011;64760;53.404;23.498;2023-07-30T08:45:19;6.25;;;3.28;;
73593;SDS011;64760;53.404;23.498;2023-07-30T08:47:45;5.88;;;2.00;;
73593;SDS011;64760;53.404;23.498;2023-07-30T08:50:12;5.32;;;3.20;;
73593;SDS011;64760;53.404;23.498;2023-07-30T08:52:38;5.00;;;2.75;;
73593;SDS011;64760;53.404;23.498;2023-07-30T08:55:04;3.80;;;2.70;;
73593;SDS011;64760;53.404;23.498;2023-07-30T08:57:31;4.55;;;3.00;;
73593;SDS011;64760;53.404;23.498;2023-07-30T09:00:08;3.50;;;2.30;;
73593;SDS011;64760;53.404;23.498;2023-07-30T09:02:39;3.70;;;2.30;;
73593;SDS011;64760;53.404;23.498;2023-07-30T09:05:08;5.55;;;2.70;;
73593;SDS011;64760;53.404;23.498;2023-07-30T09:07:35;4.57;;;2.35;;
73593;SDS011;64760;53.404;23.498;2023-07-30T09:10:00;3.92;;;2.40;;
73593;SDS011;64760;53.404;23.498;2023-07-30T09:12:33;4.47;;;3.10;;
73593;SDS011;64760;53.404;23.498;2023-07-30T09:15:00;7.70;;;4.07;;
73593;SDS011;64760;53.404;23.498;2023-07-30T09:17:27;5.90;;;3.33;;
73593;SDS011;64760;53.404;23.498;2023-07-30T09:19:54;4.78;;;2.50;;
73593;SDS011;64760;53.404;23.498;2023-07-30T09:22:27;3.67;;;2.35;;
73593;SDS011;64760;53.404;23.498;2023-07-30T09:24:56;3.35;;;2.03;;
73593;SDS011;64760;53.404;23.498;2023-07-30T09:27:24;3.47;;;2.10;;
73593;SDS011;64760;53.404;23.498;2023-07-30T09:29:52;4.05;;;1.98;;
73593;SDS011;64760;53.404;23.498;2023-07-30T09:32:19;3.28;;;2.05;;
73593;SDS011;64760;53.404;23.498;2023-07-30T09:34:45;4.22;;;2.10;;
73593;SDS011;64760;53.404;23.498;2023-07-30T09:37:13;4.28;;;1.95;;
73593;SDS011;64760;53.404;23.498;2023-07-30T09:39:39;2.85;;;1.77;;
73593;SDS011;64760;53.404;23.498;2023-07-30T09:42:06;2.67;;;1.63;;
73593;SDS011;64760;53.404;23.498;2023-07-30T09:44:33;3.08;;;1.80;;
73593;SDS011;64760;53.404;23.498;2023-07-30T09:47:00;2.40;;;1.60;;
73593;SDS011;64760;53.404;23.498;2023-07-30T09:49:30;3.05;;;1.70;;
73593;SDS011;64760;53.404;23.498;2023-07-30T09:51:57;5.30;;;2.28;;
73593;SDS011;64760;53.404;23.498;2023-07-30T09:54:24;2.35;;;1.50;;
73593;SDS011;64760;53.404;23.498;2023-07-30T09:56:50;2.67;;;1.90;;
73593;SDS011;64760;53.404;23.498;2023-07-30T09:59:16;3.55;;;1.90;;
73593;SDS011;64760;53.404;23.498;2023-07-30T10:01:44;2.75;;;1.70;;
73593;SDS011;64760;53.404;23.498;2023-07-30T10:04:11;3.00;;;1.70;;
73593;SDS011;64760;53.404;23.498;2023-07-30T10:06:39;2.95;;;1.63;;
73593;SDS011;64760;53.404;23.498;2023-07-30T10:09:06;4.85;;;2.00;;
73593;SDS011;64760;53.404;23.498;2023-07-30T10:11:33;2.70;;;1.83;;
73593;SDS011;64760;53.404;23.498;2023-07-30T10:14:00;3.55;;;2.20;;
73593;SDS011;64760;53.404;23.498;2023-07-30T10:16:26;3.78;;;2.22;;
73593;SDS011;64760;53.404;23.498;2023-07-30T10:21:24;2.92;;;1.80;;
73593;SDS011;64760;53.404;23.498;2023-07-30T10:24:03;3.60;;;2.35;;
73593;SDS011;64760;53.404;23.498;2023-07-30T10:26:31;3.85;;;2.13;;
73593;SDS011;64760;53.404;23.498;2023-07-30T10:32:01;2.72;;;1.73;;
73593;SDS011;64760;53.404;23.498;2023-07-30T10:34:44;2.90;;;1.70;;
73593;SDS011;64760;53.404;23.498;2023-07-30T10:37:11;3.10;;;1.75;;
73593;SDS011;64760;53.404;23.498;2023-07-30T10:39:43;4.28;;;2.08;;
73593;SDS011;64760;53.404;23.498;2023-07-30T10:42:09;3.60;;;2.13;;
73593;SDS011;64760;53.404;23.498;2023-07-30T10:44:35;2.53;;;1.80;;
73593;SDS011;64760;53.404;23.498;2023-07-30T10:47:01;2.40;;;1.70;;
73593;SDS011;64760;53.404;23.498;2023-07-30T10:49:28;3.00;;;1.80;;
73593;SDS011;64760;53.404;23.498;2023-07-30T10:51:55;3.30;;;2.10;;
73593;SDS011;64760;53.404;23.498;2023-07-30T10:54:22;3.00;;;1.90;;
73593;SDS011;64760;53.404;23.498;2023-07-30T10:56:52;2.50;;;1.50;;
73593;SDS011;64760;53.404;23.498;2023-07-30T10:59:18;2.33;;;1.33;;
73593;SDS011;64760;53.404;23.498;2023-07-30T11:01:45;2.45;;;1.70;;
73593;SDS011;64760;53.404;23.498;2023-07-30T11:04:15;2.83;;;1.90;;
73593;SDS011;64760;53.404;23.498;2023-07-30T11:06:46;3.15;;;1.90;;
73593;SDS011;64760;53.404;23.498;2023-07-30T11:09:23;3.00;;;1.88;;
73593;SDS011;64760;53.404;23.498;2023-07-30T11:11:51;5.10;;;1.92;;
73593;SDS011;64760;53.404;23.498;2023-07-30T11:14:17;3.30;;;2.00;;
73593;SDS011;64760;53.404;23.498;2023-07-30T11:16:52;3.47;;;1.90;;
73593;SDS011;64760;53.404;23.498;2023-07-30T11:19:18;2.95;;;1.77;;
73593;SDS011;64760;53.404;23.498;2023-07-30T11:21:50;3.70;;;1.98;;
73593;SDS011;64760;53.404;23.498;2023-07-30T11:24:16;3.00;;;1.80;;
73593;SDS011;64760;53.404;23.498;2023-07-30T11:26:42;3.22;;;1.90;;
73593;SDS011;64760;53.404;23.498;2023-07-30T11:29:15;5.50;;;1.73;;
73593;SDS011;64760;53.404;23.498;2023-07-30T11:31:43;3.42;;;2.00;;
73593;SDS011;64760;53.404;23.498;2023-07-30T11:34:09;3.25;;;2.03;;
73593;SDS011;64760;53.404;23.498;2023-07-30T11:36:35;3.90;;;1.80;;
73593;SDS011;64760;53.404;23.498;2023-07-30T11:39:01;3.10;;;1.77;;
73593;SDS011;64760;53.404;23.498;2023-07-30T11:41:28;2.50;;;1.60;;
73593;SDS011;64760;53.404;23.498;2023-07-30T11:43:54;2.60;;;1.40;;
73593;SDS011;64760;53.404;23.498;2023-07-30T11:46:20;3.35;;;1.80;;
73593;SDS011;64760;53.404;23.498;2023-07-30T11:48:49;3.72;;;2.35;;
73593;SDS011;64760;53.404;23.498;2023-07-30T11:51:28;3.50;;;2.00;;
73593;SDS011;64760;53.404;23.498;2023-07-30T11:53:55;3.78;;;1.80;;
73593;SDS011;64760;53.404;23.498;2023-07-30T11:56:23;2.97;;;1.67;;
73593;SDS011;64760;53.404;23.498;2023-07-30T11:58:51;2.90;;;1.98;;
73593;SDS011;64760;53.404;23.498;2023-07-30T12:01:18;3.38;;;1.73;;
73593;SDS011;64760;53.404;23.498;2023-07-30T12:03:44;3.38;;;1.95;;
73593;SDS011;64760;53.404;23.498;2023-07-30T12:06:10;3.00;;;1.80;;
73593;SDS011;64760;53.404;23.498;2023-07-30T12:08:36;2.92;;;1.55;;
73593;SDS011;64760;53.404;23.498;2023-07-30T12:11:03;3.00;;;1.73;;
73593;SDS011;64760;53.404;23.498;2023-07-30T12:13:30;3.70;;;2.00;;
73593;SDS011;64760;53.404;23.498;2023-07-30T12:15:57;3.33;;;1.90;;
73593;SDS011;64760;53.404;23.498;2023-07-30T12:18:24;2.55;;;1.58;;
73593;SDS011;64760;53.404;23.498;2023-07-30T12:20:51;3.65;;;1.85;;
73593;SDS011;64760;53.404;23.498;2023-07-30T12:23:17;3.67;;;1.60;;
73593;SDS011;64760;53.404;23.498;2023-07-30T12:25:44;2.85;;;1.50;;
73593;SDS011;64760;53.404;23.498;2023-07-30T12:28:11;3.40;;;1.98;;
73593;SDS011;64760;53.404;23.498;2023-07-30T12:30:37;2.75;;;1.83;;
73593;SDS011;64760;53.404;23.498;2023-07-30T12:33:04;3.50;;;1.83;;
73593;SDS011;64760;53.404;23.498;2023-07-30T12:35:31;4.22;;;2.55;;
73593;SDS011;64760;53.404;23.498;2023-07-30T12:37:57;3.25;;;2.05;;
73593;SDS011;64760;53.404;23.498;2023-07-30T12:42:49;8.55;;;2.10;;
73593;SDS011;64760;53.404;23.498;2023-07-30T12:45:34;3.10;;;2.00;;
73593;SDS011;64760;53.404;23.498;2023-07-30T12:48:00;4.18;;;1.98;;
73593;SDS011;64760;53.404;23.498;2023-07-30T12:50:26;3.03;;;1.75;;
73593;SDS011;64760;53.404;23.498;2023-07-30T12:52:52;3.17;;;1.95;;
73593;SDS011;64760;53.404;23.498;2023-07-30T12:55:19;3.58;;;2.10;;
73593;SDS011;64760;53.404;23.498;2023-07-30T12:57:45;4.75;;;2.95;;
73593;SDS011;64760;53.404;23.498;2023-07-30T13:00:12;2.88;;;1.75;;
73593;SDS011;64760;53.404;23.498;2023-07-30T13:02:39;3.80;;;2.35;;
73593;SDS011;64760;53.404;23.498;2023-07-30T13:05:05;4.32;;;2.40;;
73593;SDS011;64760;53.404;23.498;2023-07-30T13:07:31;7.53;;;2.95;;
73593;SDS011;64760;53.404;23.498;2023-07-30T13:10:04;3.95;;;1.80;;
73593;SDS011;64760;53.404;23.498;2023-07-30T13:14:58;2.80;;;1.48;;
73593;SDS011;64760;53.404;23.498;2023-07-30T13:17:24;3.40;;;2.20;;
73593;SDS011;64760;53.404;23.498;2023-07-30T13:19:51;3.75;;;2.30;;
73593;SDS011;64760;53.404;23.498;2023-07-30T13:24:43;6.10;;;3.35;;
73593;SDS011;64760;53.404;23.498;2023-07-30T13:27:09;6.57;;;2.53;;
73593;SDS011;64760;53.404;23.498;2023-07-30T13:29:35;3.08;;;1.85;;
73593;SDS011;64760;53.404;23.498;2023-07-30T13:32:01;3.88;;;2.25;;
73593;SDS011;64760;53.404;23.498;2023-07-30T13:34:27;4.07;;;2.53;;
73593;SDS011;64760;53.404;23.498;2023-07-30T13:36:53;4.88;;;2.20;;
73593;SDS011;64760;53.404;23.498;2023-07-30T13:39:20;3.83;;;2.10;;
73593;SDS011;64760;53.404;23.498;2023-07-30T13:41:45;3.28;;;2.40;;
73593;SDS011;64760;53.404;23.498;2023-07-30T13:44:12;3.30;;;2.08;;
73593;SDS011;64760;53.404;23.498;2023-07-30T13:46:38;3.35;;;2.10;;
73593;SDS011;64760;53.404;23.498;2023-07-30T13:49:07;3.75;;;2.10;;
73593;SDS011;64760;53.404;23.498;2023-07-30T13:51:33;5.88;;;2.42;;
73593;SDS011;64760;53.404;23.498;2023-07-30T13:53:59;3.28;;;2.20;;
73593;SDS011;64760;53.404;23.498;2023-07-30T13:56:26;4.18;;;2.70;;
73593;SDS011;64760;53.404;23.498;2023-07-30T13:58:52;3.40;;;2.15;;
73593;SDS011;64760;53.404;23.498;2023-07-30T14:01:18;6.28;;;3.20;;
73593;SDS011;64760;53.404;23.498;2023-07-30T14:03:44;3.67;;;2.20;;
73593;SDS011;64760;53.404;23.498;2023-07-30T14:06:10;4.05;;;1.95;;
73593;SDS011;64760;53.404;23.498;2023-07-30T14:08:37;4.32;;;2.00;;
73593;SDS011;64760;53.404;23.498;2023-07-30T14:11:03;5.25;;;2.33;;
73593;SDS011;64760;53.404;23.498;2023-07-30T14:13:30;4.47;;;2.95;;
73593;SDS011;64760;53.404;23.498;2023-07-30T14:15:56;4.57;;;2.35;;
73593;SDS011;64760;53.404;23.498;2023-07-30T14:18:24;3.50;;;1.90;;
73593;SDS011;64760;53.404;23.498;2023-07-30T14:20:50;3.08;;;2.13;;
73593;SDS011;64760;53.404;23.498;2023-07-30T14:23:16;4.20;;;2.65;;
73593;SDS011;64760;53.404;23.498;2023-07-30T14:25:42;4.13;;;2.50;;
73593;SDS011;64760;53.404;23.498;2023-07-30T14:28:08;3.90;;;2.20;;
73593;SDS011;64760;53.404;23.498;2023-07-30T14:30:34;3.88;;;2.33;;
73593;SDS011;64760;53.404;23.498;2023-07-30T14:33:01;4.65;;;2.30;;
73593;SDS011;64760;53.404;23.498;2023-07-30T14:35:28;4.18;;;2.40;;
73593;SDS011;64760;53.404;23.498;2023-07-30T14:40:22;3.50;;;2.22;;
73593;SDS011;64760;53.404;23.498;2023-07-30T14:42:50;4.40;;;2.60;;
73593;SDS011;64760;53.404;23.498;2023-07-30T14:45:16;4.53;;;3.00;;
73593;SDS011;64760;53.404;23.498;2023-07-30T14:47:42;3.58;;;2.33;;